Casa Grande, Brazil
Current Conditions -  °F | °C
As of 6:00 AM on Friday 28 Nov 2014 (Local Time) from SBBQ Reporting Station
Light Rain Light Rain  
Wind Chill: 63°   Ceiling: 700
Heat Index: 63°   Visibility: 3mi
Dew Point: 61°   Wind: 3mph
Humidity: 94%   Direction: 90°E
Pressure: 30.09"   Gusts: NA
Location:  20.79°S, 43.93°W
Report Text: SBBQ 280800Z 09003KT 5000 -RA BKN007 OVC070 17/16 Q1019
Loading
Personal Weather Stations






























Interactive Weather Map New forecast layout! Learn more

10-Day Weather Forecast

Advertisements
Track Severe Weather on mobile